West Glacier, Montana
Current Conditions -  °F | °C
As of 5:55 PM on Friday 19 Dec 2014 (Local Time) from KGPI Reporting Station
Haze Haze  
Wind Chill: 28°   Ceiling: 7000
Heat Index: 36°   Visibility: 6mi
Dew Point: 34°   Wind: 12mph
Humidity: 93%   Direction: 150°SSE
Pressure: 29.89"   Gusts: NA
Location:  48.5°N, 113.98°W
Report Text: KGPI 200055Z 15010KT 6SM BR FEW017 OVC070 02/01 A2989 RMK AO2 RAE21 SLP145 P0000 T00220011 $
Loading
Personal Weather Stations






























Interactive Weather Map New forecast layout! Learn more

10-Day Weather Forecast

Advertisements
Track Severe Weather on mobile